Valle Hermoso, Puerto Rico
Current Conditions -  °F | °C
As of 2:50 PM on Tuesday 27 Jan 2015 (Local Time) from TJBQ Reporting Station
Overcast Overcast  
Wind Chill: 79°   Ceiling: 8000
Heat Index: 81°   Visibility: 10mi
Dew Point: 70°   Wind: 7mph
Humidity: 74%   Direction: 40°NE
Pressure: 29.97"   Gusts: NA
Location:  18.1684°N, 67.1306°W
Report Text: TJBQ 271850Z 04006KT 10SM OVC080 26/21 A2997 RMK RWY08 ATIS Y
Loading
Personal Weather Stations






























Interactive Weather Map New forecast layout! Learn more

10-Day Weather Forecast

Advertisements
Track Severe Weather on mobile